createdAt,value
2023-05-08T00:00:10.184Z,4.10
2023-05-08T00:02:37.052Z,3.87
2023-05-08T00:05:03.985Z,2.80
2023-05-08T00:07:30.786Z,3.07
2023-05-08T00:09:57.610Z,3.97
2023-05-08T00:12:24.316Z,3.67
2023-05-08T00:14:50.941Z,4.90
2023-05-08T00:17:17.656Z,3.50
2023-05-08T00:19:44.253Z,4.40
2023-05-08T00:22:11.129Z,4.73
2023-05-08T00:24:37.762Z,3.77
2023-05-08T00:27:04.450Z,3.50
2023-05-08T00:29:31.198Z,4.13
2023-05-08T00:31:57.875Z,3.10
2023-05-08T00:34:24.515Z,3.00
2023-05-08T00:36:51.171Z,4.53
2023-05-08T00:39:18.485Z,4.47
2023-05-08T00:41:45.405Z,3.90
2023-05-08T00:44:12.011Z,4.73
2023-05-08T00:46:39.417Z,4.00
2023-05-08T00:49:06.783Z,2.90
2023-05-08T00:51:34.074Z,4.00
2023-05-08T00:54:00.849Z,4.30
2023-05-08T00:56:28.418Z,4.77
2023-05-08T00:58:55.327Z,3.30
2023-05-08T01:01:22.697Z,6.70
2023-05-08T01:03:49.793Z,4.47
2023-05-08T01:06:16.933Z,4.53
2023-05-08T01:08:46.684Z,3.57
2023-05-08T01:11:13.332Z,4.10
2023-05-08T01:14:02.861Z,2.77
2023-05-08T01:16:45.511Z,6.03
2023-05-08T01:19:40.900Z,2.87
2023-05-08T01:22:29.782Z,3.80
2023-05-08T01:25:27.193Z,6.53
2023-05-08T01:28:02.485Z,3.67
2023-05-08T01:30:32.077Z,5.60
2023-05-08T01:33:17.281Z,4.00
2023-05-08T01:35:51.871Z,3.53
2023-05-08T01:38:37.654Z,3.30
2023-05-08T01:41:12.039Z,4.93
2023-05-08T01:43:52.209Z,5.70
2023-05-08T01:46:24.146Z,4.73
2023-05-08T01:49:12.647Z,3.20
2023-05-08T01:51:44.811Z,3.47
2023-05-08T01:54:16.409Z,3.40
2023-05-08T01:56:45.374Z,3.57
2023-05-08T01:59:17.065Z,3.97
2023-05-08T02:01:46.131Z,3.30
2023-05-08T02:04:16.257Z,4.23
2023-05-08T02:06:43.800Z,4.27
2023-05-08T02:09:12.549Z,2.67
2023-05-08T02:11:42.427Z,4.23
2023-05-08T02:14:11.615Z,4.20
2023-05-08T02:16:40.452Z,3.00
2023-05-08T02:19:08.449Z,3.20
2023-05-08T02:21:36.921Z,3.70
2023-05-08T02:24:04.612Z,4.30
2023-05-08T02:26:32.710Z,4.20
2023-05-08T02:29:02.294Z,3.00
2023-05-08T02:31:30.400Z,3.60
2023-05-08T02:33:59.595Z,3.87
2023-05-08T02:36:28.888Z,4.33
2023-05-08T02:38:58.870Z,3.10
2023-05-08T02:41:29.776Z,4.80
2023-05-08T02:43:57.044Z,4.47
2023-05-08T02:47:07.302Z,3.37
2023-05-08T02:50:03.674Z,6.20
2023-05-08T02:52:37.948Z,4.93
2023-05-08T02:55:27.320Z,4.37
2023-05-08T02:58:32.576Z,4.50
2023-05-08T03:01:24.385Z,3.83
2023-05-08T03:04:07.742Z,4.00
2023-05-08T03:06:40.262Z,3.70
2023-05-08T03:09:12.474Z,5.00
2023-05-08T03:11:42.416Z,4.33
2023-05-08T03:14:12.621Z,5.77
2023-05-08T03:16:42.890Z,4.30
2023-05-08T03:19:23.095Z,4.07
2023-05-08T03:21:51.846Z,6.43
2023-05-08T03:24:20.375Z,5.77
2023-05-08T03:26:47.717Z,5.23
2023-05-08T03:29:15.649Z,6.47
2023-05-08T03:31:44.597Z,5.83
2023-05-08T03:34:13.527Z,6.03
2023-05-08T03:36:40.863Z,5.80
2023-05-08T03:39:08.124Z,6.57
2023-05-08T03:41:34.952Z,6.93
2023-05-08T03:44:03.677Z,6.63
2023-05-08T03:46:35.715Z,6.50
2023-05-08T03:49:06.040Z,6.57
2023-05-08T03:51:33.225Z,5.87
2023-05-08T03:54:00.013Z,7.17
2023-05-08T03:56:28.085Z,6.20
2023-05-08T03:59:17.666Z,7.63
2023-05-08T04:01:53.956Z,6.90
2023-05-08T04:04:39.974Z,6.93
2023-05-08T04:07:11.454Z,10.13
2023-05-08T04:09:51.590Z,8.73
2023-05-08T04:12:22.351Z,7.00
2023-05-08T04:15:11.656Z,7.53
2023-05-08T04:17:44.123Z,7.27
2023-05-08T04:20:16.566Z,8.73
2023-05-08T04:22:46.206Z,6.60
2023-05-08T04:25:16.462Z,7.50
2023-05-08T04:27:45.242Z,7.70
2023-05-08T04:30:13.378Z,6.43
2023-05-08T04:32:42.321Z,9.47
2023-05-08T04:35:13.281Z,8.77
2023-05-08T04:37:42.050Z,7.67
2023-05-08T04:40:10.512Z,8.37
2023-05-08T04:42:39.456Z,9.27
2023-05-08T04:45:06.931Z,10.07
2023-05-08T04:47:33.690Z,9.03
2023-05-08T04:50:02.751Z,9.13
2023-05-08T04:52:31.236Z,8.30
2023-05-08T04:54:57.979Z,9.63
2023-05-08T04:57:24.576Z,8.93
2023-05-08T04:59:51.518Z,10.33
2023-05-08T05:02:18.472Z,10.17
2023-05-08T05:04:46.614Z,8.47
2023-05-08T05:07:14.042Z,9.77
2023-05-08T05:09:41.019Z,9.40
2023-05-08T05:12:08.124Z,11.43
2023-05-08T05:14:35.564Z,9.13
2023-05-08T05:17:02.360Z,8.73
2023-05-08T05:19:29.402Z,8.53
2023-05-08T05:21:56.289Z,6.83
2023-05-08T05:24:23.123Z,8.70
2023-05-08T05:26:49.853Z,8.30
2023-05-08T05:29:16.928Z,8.37
2023-05-08T05:31:43.826Z,8.33
2023-05-08T05:34:10.788Z,7.03
2023-05-08T05:36:37.488Z,6.70
2023-05-08T05:39:04.650Z,6.70
2023-05-08T05:41:32.513Z,8.23
2023-05-08T05:43:59.209Z,7.50
2023-05-08T05:46:32.197Z,6.47
2023-05-08T05:49:01.216Z,6.27
2023-05-08T05:51:29.375Z,6.97
2023-05-08T05:53:57.137Z,7.13
2023-05-08T05:56:24.722Z,6.63
2023-05-08T05:58:51.708Z,6.70
2023-05-08T06:01:18.405Z,6.40
2023-05-08T06:03:45.154Z,5.33
2023-05-08T06:06:12.450Z,6.50
2023-05-08T06:08:39.280Z,5.97
2023-05-08T06:11:05.988Z,8.50
2023-05-08T06:13:32.907Z,6.50
2023-05-08T06:16:00.311Z,6.93
2023-05-08T06:18:27.003Z,5.97
2023-05-08T06:21:00.118Z,7.87
2023-05-08T06:23:27.072Z,6.43
2023-05-08T06:25:54.197Z,8.10
2023-05-08T06:28:22.448Z,9.07
2023-05-08T06:30:49.274Z,7.00
2023-05-08T06:33:15.959Z,7.50
2023-05-08T06:35:46.440Z,7.03
2023-05-08T06:38:13.812Z,7.47
2023-05-08T06:40:46.584Z,8.57
2023-05-08T06:43:13.469Z,9.20
2023-05-08T06:45:40.569Z,7.60
2023-05-08T06:48:07.551Z,8.73
2023-05-08T06:50:37.198Z,9.47
2023-05-08T06:53:03.887Z,9.57
2023-05-08T06:55:30.596Z,7.73
2023-05-08T06:57:57.254Z,8.50
2023-05-08T07:00:24.179Z,8.03
2023-05-08T07:02:51.714Z,8.27
2023-05-08T07:05:19.915Z,8.97
2023-05-08T07:07:46.738Z,9.37
2023-05-08T07:10:13.408Z,7.87
2023-05-08T07:12:40.872Z,8.57
2023-05-08T07:15:24.148Z,8.70
2023-05-08T07:17:51.869Z,9.13
2023-05-08T07:20:18.524Z,7.20
2023-05-08T07:22:45.141Z,8.20
2023-05-08T07:25:12.992Z,8.63
2023-05-08T07:27:39.900Z,8.43
2023-05-08T07:30:07.282Z,10.23
2023-05-08T07:32:34.127Z,10.90
2023-05-08T07:35:02.782Z,9.77
2023-05-08T07:37:29.600Z,9.87
2023-05-08T07:39:56.245Z,10.83
2023-05-08T07:42:23.199Z,10.23
2023-05-08T07:44:54.883Z,13.77
2023-05-08T07:47:22.597Z,7.87
2023-05-08T07:49:49.425Z,7.80
2023-05-08T07:52:16.768Z,11.13
2023-05-08T07:54:43.721Z,9.17
2023-05-08T07:57:11.110Z,8.80
2023-05-08T07:59:37.707Z,8.17
2023-05-08T08:02:04.368Z,9.80
2023-05-08T08:04:31.117Z,10.50
2023-05-08T08:06:57.830Z,10.13
2023-05-08T08:09:24.567Z,9.37
2023-05-08T08:11:51.284Z,8.70
2023-05-08T08:14:17.986Z,10.00
2023-05-08T08:16:44.679Z,9.83
2023-05-08T08:19:11.369Z,7.43
2023-05-08T08:21:43.214Z,6.33
2023-05-08T08:24:10.130Z,8.23
2023-05-08T08:26:36.977Z,9.40
2023-05-08T08:29:03.852Z,7.17
2023-05-08T08:31:30.628Z,7.93
2023-05-08T08:33:57.612Z,9.83
2023-05-08T08:36:24.259Z,8.10
2023-05-08T08:38:50.869Z,8.30
2023-05-08T08:41:17.653Z,8.57
2023-05-08T08:43:44.334Z,10.00
2023-05-08T08:46:15.510Z,10.37
2023-05-08T08:48:45.402Z,10.30
2023-05-08T08:51:25.501Z,7.23
2023-05-08T08:54:00.678Z,7.93
2023-05-08T08:56:28.853Z,7.38
2023-05-08T08:58:59.226Z,7.13
2023-05-08T09:01:29.242Z,6.25
2023-05-08T09:03:59.814Z,5.38
2023-05-08T09:06:27.585Z,6.72
2023-05-08T09:08:58.454Z,7.80
2023-05-08T09:11:25.767Z,5.82
2023-05-08T09:13:52.557Z,7.10
2023-05-08T09:16:19.345Z,6.07
2023-05-08T09:18:46.045Z,4.50
2023-05-08T09:21:13.003Z,4.85
2023-05-08T09:24:00.160Z,4.43
2023-05-08T09:26:32.690Z,4.18
2023-05-08T09:29:09.737Z,5.13
2023-05-08T09:31:39.727Z,4.70
2023-05-08T09:34:11.201Z,6.18
2023-05-08T09:36:40.619Z,4.35
2023-05-08T09:39:14.248Z,4.72
2023-05-08T09:42:00.181Z,5.97
2023-05-08T09:44:27.225Z,5.20
2023-05-08T09:47:14.140Z,5.88
2023-05-08T09:50:16.805Z,4.35
2023-05-08T09:52:47.941Z,4.32
2023-05-08T09:55:15.011Z,5.00
2023-05-08T09:57:53.815Z,3.33
2023-05-08T10:00:21.042Z,3.60
2023-05-08T10:03:02.334Z,3.00
2023-05-08T10:05:32.234Z,3.45
2023-05-08T10:08:21.283Z,2.58
2023-05-08T10:10:48.097Z,3.50
2023-05-08T10:13:15.306Z,4.68
2023-05-08T10:15:43.405Z,2.60
2023-05-08T10:18:12.198Z,2.92
2023-05-08T10:20:44.197Z,3.75
2023-05-08T10:23:16.840Z,3.70
2023-05-08T10:25:46.191Z,3.67
2023-05-08T10:28:28.074Z,3.63
2023-05-08T10:30:59.731Z,3.58
2023-05-08T10:33:31.376Z,3.20
2023-05-08T10:35:58.998Z,4.73
2023-05-08T10:38:25.976Z,4.20
2023-05-08T10:40:57.741Z,3.77
2023-05-08T10:43:25.444Z,4.30
2023-05-08T10:45:53.672Z,4.50
2023-05-08T10:48:32.631Z,3.17
2023-05-08T10:51:17.905Z,5.87
2023-05-08T10:53:50.933Z,4.38
2023-05-08T10:56:17.634Z,4.10
2023-05-08T10:58:44.223Z,4.13
2023-05-08T11:01:12.061Z,4.75
2023-05-08T11:03:44.818Z,5.05
2023-05-08T11:06:12.529Z,3.15
2023-05-08T11:08:48.768Z,4.82
2023-05-08T11:11:34.175Z,3.33
2023-05-08T11:14:07.068Z,3.78
2023-05-08T11:16:56.414Z,3.88
2023-05-08T11:19:25.082Z,4.00
2023-05-08T11:22:10.988Z,4.93
2023-05-08T11:24:39.378Z,3.80
2023-05-08T11:27:06.169Z,4.88
2023-05-08T11:29:33.170Z,4.80
2023-05-08T11:32:00.283Z,4.97
2023-05-08T11:34:42.661Z,4.22
2023-05-08T11:37:11.212Z,3.42
2023-05-08T11:39:38.171Z,4.00
2023-05-08T11:42:27.072Z,5.63
2023-05-08T11:45:13.200Z,3.50
2023-05-08T11:47:42.654Z,4.80
2023-05-08T11:50:11.615Z,3.10
2023-05-08T11:52:41.272Z,3.23
2023-05-08T11:55:10.145Z,5.10
2023-05-08T11:57:37.082Z,5.63
2023-05-08T12:00:12.020Z,5.07
2023-05-08T12:02:40.008Z,3.30
2023-05-08T12:05:08.077Z,3.57
2023-05-08T12:07:47.914Z,3.60
2023-05-08T12:10:16.022Z,4.43
2023-05-08T12:12:45.005Z,4.97
2023-05-08T12:15:14.384Z,3.60
2023-05-08T12:17:42.084Z,4.87
2023-05-08T12:20:14.337Z,4.30
2023-05-08T12:22:42.521Z,4.97
2023-05-08T12:25:11.945Z,4.53
2023-05-08T12:27:38.927Z,4.47
2023-05-08T12:30:10.926Z,4.17
2023-05-08T12:32:40.057Z,4.00
2023-05-08T12:35:08.742Z,6.00
2023-05-08T12:37:36.635Z,4.03
2023-05-08T12:40:04.852Z,4.70
2023-05-08T12:42:49.911Z,4.70
2023-05-08T12:45:25.604Z,4.33
2023-05-08T12:47:53.837Z,4.60
2023-05-08T12:50:21.847Z,4.43
2023-05-08T12:52:51.142Z,5.38
2023-05-08T12:55:25.806Z,4.70
2023-05-08T12:57:59.671Z,4.03
2023-05-08T13:00:39.737Z,4.35
2023-05-08T13:03:08.459Z,4.65
2023-05-08T13:05:37.457Z,6.25
2023-05-08T13:08:11.931Z,4.47
2023-05-08T13:10:47.736Z,4.45
2023-05-08T13:13:15.947Z,4.93
2023-05-08T13:15:43.184Z,5.70
2023-05-08T13:18:10.274Z,5.15
2023-05-08T13:20:37.989Z,5.28
2023-05-08T13:23:05.363Z,4.75
2023-05-08T13:25:33.062Z,5.05
2023-05-08T13:28:00.298Z,4.50
2023-05-08T13:30:27.311Z,5.40
2023-05-08T13:32:54.550Z,4.85
2023-05-08T13:35:21.786Z,4.10
2023-05-08T13:37:49.337Z,5.70
2023-05-08T13:40:16.468Z,5.57
2023-05-08T13:42:43.470Z,4.97
2023-05-08T13:45:10.855Z,4.72
2023-05-08T13:47:37.619Z,4.68
2023-05-08T13:50:04.549Z,4.70
2023-05-08T13:52:31.168Z,4.90
2023-05-08T13:54:58.305Z,4.93
2023-05-08T13:57:25.047Z,6.13
2023-05-08T13:59:51.816Z,6.10
2023-05-08T14:02:18.548Z,3.80
2023-05-08T14:04:45.249Z,5.78
2023-05-08T14:07:11.952Z,5.40
2023-05-08T14:09:38.620Z,4.65
2023-05-08T14:12:05.502Z,3.70
2023-05-08T14:14:33.136Z,3.47
2023-05-08T14:17:01.125Z,3.50
2023-05-08T14:19:27.799Z,3.63
2023-05-08T14:21:54.576Z,4.07
2023-05-08T14:24:21.280Z,3.65
2023-05-08T14:26:48.290Z,3.22
2023-05-08T14:29:15.493Z,3.53
2023-05-08T14:31:42.266Z,4.27
2023-05-08T14:34:08.966Z,3.88
2023-05-08T14:36:35.576Z,4.90
2023-05-08T14:39:03.117Z,4.20
2023-05-08T14:41:30.714Z,3.83
2023-05-08T14:43:57.842Z,4.87
2023-05-08T14:46:25.122Z,5.40
2023-05-08T14:48:51.796Z,5.30
2023-05-08T14:51:21.049Z,4.33
2023-05-08T14:53:47.830Z,7.13
2023-05-08T14:56:14.848Z,5.03
2023-05-08T14:58:41.610Z,4.43
2023-05-08T15:01:08.239Z,4.80
2023-05-08T15:03:35.011Z,9.37
2023-05-08T15:06:02.264Z,7.00
2023-05-08T15:08:28.995Z,6.50
2023-05-08T15:10:56.053Z,5.87
2023-05-08T15:13:22.798Z,4.50
2023-05-08T15:15:49.571Z,5.13
2023-05-08T15:18:16.356Z,4.73
2023-05-08T15:20:43.018Z,4.23
2023-05-08T15:23:10.078Z,6.43
2023-05-08T15:25:36.795Z,3.13
2023-05-08T15:28:03.618Z,5.53
2023-05-08T15:30:30.455Z,5.07
2023-05-08T15:32:57.171Z,3.37
2023-05-08T15:35:23.847Z,4.43
2023-05-08T15:37:50.702Z,5.30
2023-05-08T15:40:17.408Z,4.90
2023-05-08T15:42:44.076Z,5.00
2023-05-08T15:45:10.808Z,5.10
2023-05-08T15:47:37.469Z,5.47
2023-05-08T15:50:04.402Z,5.50
2023-05-08T15:52:31.028Z,5.97
2023-05-08T15:54:57.728Z,6.43
2023-05-08T15:57:26.943Z,6.77
2023-05-08T15:59:53.621Z,9.67
2023-05-08T16:02:20.449Z,27.37
2023-05-08T16:04:47.168Z,10.67
2023-05-08T16:07:13.941Z,6.10
2023-05-08T16:09:40.633Z,5.40
2023-05-08T16:12:07.454Z,4.30
2023-05-08T16:14:35.468Z,5.87
2023-05-08T16:17:03.096Z,5.63
2023-05-08T16:19:29.861Z,6.40
2023-05-08T16:21:56.605Z,7.90
2023-05-08T16:24:23.307Z,6.63
2023-05-08T16:26:49.886Z,6.70
2023-05-08T16:29:16.505Z,7.43
2023-05-08T16:31:43.176Z,5.83
2023-05-08T16:34:09.870Z,7.37
2023-05-08T16:36:36.752Z,7.77
2023-05-08T16:39:03.542Z,5.80
2023-05-08T16:41:30.214Z,7.63
2023-05-08T16:43:56.816Z,7.70
2023-05-08T16:46:30.101Z,6.10
2023-05-08T16:48:57.728Z,7.00
2023-05-08T16:51:24.451Z,7.33
2023-05-08T16:53:51.226Z,7.37
2023-05-08T16:56:18.102Z,8.30
2023-05-08T16:58:44.770Z,5.83
2023-05-08T17:01:11.748Z,7.70
2023-05-08T17:03:38.626Z,5.73
2023-05-08T17:06:09.189Z,6.67
2023-05-08T17:08:35.820Z,6.73
2023-05-08T17:11:02.551Z,5.27
2023-05-08T17:13:29.329Z,5.70
2023-05-08T17:15:56.291Z,6.53
2023-05-08T17:18:22.958Z,8.10
2023-05-08T17:20:50.841Z,8.97
2023-05-08T17:23:17.546Z,9.13
2023-05-08T17:25:44.224Z,8.43
2023-05-08T17:28:13.929Z,7.07
2023-05-08T17:30:40.567Z,8.07
2023-05-08T17:33:07.377Z,11.40
2023-05-08T17:35:34.236Z,6.17
2023-05-08T17:38:00.911Z,7.30
2023-05-08T17:40:28.859Z,6.00
2023-05-08T17:42:55.683Z,6.30
2023-05-08T17:45:22.343Z,6.10
2023-05-08T17:47:49.073Z,6.43
2023-05-08T17:50:15.965Z,5.87
2023-05-08T17:52:42.725Z,6.70
2023-05-08T17:55:10.202Z,7.47
2023-05-08T17:57:36.934Z,6.67
2023-05-08T18:00:05.061Z,7.17
2023-05-08T18:02:35.428Z,6.87
2023-05-08T18:05:02.186Z,6.83
2023-05-08T18:07:29.054Z,5.60
2023-05-08T18:09:55.835Z,6.23
2023-05-08T18:12:22.775Z,6.53
2023-05-08T18:14:49.423Z,6.70
2023-05-08T18:17:19.166Z,7.53
2023-05-08T18:19:46.326Z,9.87
2023-05-08T18:22:13.033Z,6.40
2023-05-08T18:24:39.642Z,7.03
2023-05-08T18:27:06.392Z,8.83
2023-05-08T18:29:33.063Z,6.27
2023-05-08T18:31:59.660Z,8.60
2023-05-08T18:34:26.360Z,8.30
2023-05-08T18:36:54.198Z,7.53
2023-05-08T18:39:22.099Z,6.17
2023-05-08T18:41:48.780Z,8.33
2023-05-08T18:44:15.558Z,8.87
2023-05-08T18:46:42.462Z,7.97
2023-05-08T18:49:09.205Z,8.13
2023-05-08T18:51:36.079Z,9.17
2023-05-08T18:54:02.699Z,7.50
2023-05-08T18:56:29.427Z,8.80
2023-05-08T18:58:56.343Z,8.40
2023-05-08T19:01:23.728Z,9.87
2023-05-08T19:03:50.669Z,9.70
2023-05-08T19:06:17.362Z,9.93
2023-05-08T19:08:44.537Z,10.27
2023-05-08T19:11:11.324Z,10.20
2023-05-08T19:13:38.398Z,11.40
2023-05-08T19:16:05.636Z,11.70
2023-05-08T19:18:32.309Z,10.97
2023-05-08T19:20:59.001Z,11.80
2023-05-08T19:23:25.646Z,11.97
2023-05-08T19:25:52.811Z,14.63
2023-05-08T19:28:19.646Z,13.40
2023-05-08T19:30:46.903Z,10.07
2023-05-08T19:33:13.645Z,13.70
2023-05-08T19:35:40.341Z,12.43
2023-05-08T19:38:07.003Z,10.70
2023-05-08T19:40:44.557Z,11.07
2023-05-08T19:43:19.092Z,11.53
2023-05-08T19:45:45.794Z,12.30
2023-05-08T19:48:18.039Z,16.80
2023-05-08T19:50:45.060Z,11.53
2023-05-08T19:53:11.868Z,27.10
2023-05-08T19:55:38.615Z,18.53
2023-05-08T19:58:05.207Z,24.20
2023-05-08T20:00:31.917Z,13.93
2023-05-08T20:02:58.760Z,16.90
2023-05-08T20:05:25.670Z,16.17
2023-05-08T20:07:52.290Z,19.10
2023-05-08T20:10:19.093Z,15.50
2023-05-08T20:12:45.781Z,12.47
2023-05-08T20:15:12.673Z,12.90
2023-05-08T20:17:39.421Z,10.20
2023-05-08T20:20:06.787Z,10.00
2023-05-08T20:22:33.476Z,10.03
2023-05-08T20:25:01.566Z,9.90
2023-05-08T20:27:30.438Z,10.33
2023-05-08T20:29:57.255Z,11.50
2023-05-08T20:32:24.125Z,10.57
2023-05-08T20:34:50.746Z,7.90
2023-05-08T20:37:17.472Z,7.77
2023-05-08T20:39:45.004Z,8.43
2023-05-08T20:42:11.865Z,8.47
2023-05-08T20:44:38.608Z,7.83
2023-05-08T20:47:05.354Z,8.00
2023-05-08T20:49:32.047Z,7.77
2023-05-08T20:51:58.766Z,8.07
2023-05-08T20:54:25.539Z,8.17
2023-05-08T20:56:52.223Z,7.43
2023-05-08T20:59:18.989Z,7.00
2023-05-08T21:01:47.198Z,8.13
2023-05-08T21:04:13.918Z,6.07
2023-05-08T21:06:40.580Z,6.97
2023-05-08T21:09:07.337Z,8.03
2023-05-08T21:11:34.172Z,7.37
2023-05-08T21:14:00.900Z,7.40
2023-05-08T21:16:27.548Z,6.50
2023-05-08T21:18:55.492Z,6.00
2023-05-08T21:21:24.106Z,6.27
2023-05-08T21:23:50.702Z,8.37
2023-05-08T21:26:19.726Z,5.73
2023-05-08T21:28:46.439Z,6.50
2023-05-08T21:31:13.210Z,5.73
2023-05-08T21:33:39.868Z,6.57
2023-05-08T21:36:06.717Z,7.03
2023-05-08T21:38:34.068Z,5.70
2023-05-08T21:41:10.929Z,6.07
2023-05-08T21:43:37.592Z,8.67
2023-05-08T21:46:05.228Z,6.73
2023-05-08T21:48:32.030Z,6.17
2023-05-08T21:50:59.145Z,7.40
2023-05-08T21:53:25.996Z,6.00
2023-05-08T21:55:52.692Z,6.30
2023-05-08T21:58:19.550Z,6.77
2023-05-08T22:00:46.362Z,7.43
2023-05-08T22:03:13.143Z,7.73
2023-05-08T22:05:39.858Z,8.07
2023-05-08T22:08:06.461Z,8.60
2023-05-08T22:10:33.055Z,8.70
2023-05-08T22:13:01.344Z,8.37
2023-05-08T22:15:30.728Z,7.80
2023-05-08T22:17:58.794Z,7.27
2023-05-08T22:20:25.740Z,10.33
2023-05-08T22:22:52.400Z,7.43
2023-05-08T22:25:19.447Z,7.57
2023-05-08T22:27:46.377Z,7.00
2023-05-08T22:30:13.580Z,8.13
2023-05-08T22:32:40.378Z,5.93
2023-05-08T22:35:07.162Z,6.20
2023-05-08T22:37:33.733Z,7.30
2023-05-08T22:40:00.362Z,8.30
2023-05-08T22:42:27.027Z,7.37
2023-05-08T22:44:54.803Z,6.63
2023-05-08T22:47:21.577Z,8.70
2023-05-08T22:49:48.735Z,8.53
2023-05-08T22:52:15.385Z,7.80
2023-05-08T22:54:42.087Z,8.43
2023-05-08T22:57:08.782Z,7.63
2023-05-08T22:59:36.334Z,6.90
2023-05-08T23:02:02.991Z,6.70
2023-05-08T23:04:29.649Z,7.73
2023-05-08T23:06:56.589Z,7.50
2023-05-08T23:09:23.623Z,8.63
2023-05-08T23:11:50.325Z,6.30
2023-05-08T23:14:16.993Z,9.53
2023-05-08T23:16:43.668Z,8.20
2023-05-08T23:19:10.498Z,8.70
2023-05-08T23:21:37.216Z,10.77
2023-05-08T23:24:04.804Z,7.67
2023-05-08T23:26:31.516Z,9.37
2023-05-08T23:28:58.244Z,9.33
2023-05-08T23:31:24.929Z,8.20
2023-05-08T23:33:51.671Z,8.23
2023-05-08T23:36:18.390Z,8.03
2023-05-08T23:38:45.109Z,9.80
2023-05-08T23:41:12.111Z,7.87
2023-05-08T23:43:39.061Z,10.20
2023-05-08T23:46:06.443Z,10.50
2023-05-08T23:48:33.173Z,7.50
2023-05-08T23:50:59.796Z,12.23
2023-05-08T23:53:26.427Z,7.67
2023-05-08T23:55:53.116Z,9.03
2023-05-08T23:58:19.760Z,9.80
